Time,TemperatureF,DewpointF,PressureIn,WindDirection,WindDirectionDegrees,WindSpeedMPH,WindSpeedGustMPH,Humidity,HourlyPrecipIn,Conditions,Clouds,dailyrainin,SolarRadiationWatts/m^2,SoftwareType,DateUTC
2013-07-02 00:02:00,67.0,66.0,-100.00,WSW,240,1.0,5.0,98,0.04,,,0.49,0.000000,,2013-07-02 04:02:00,
2013-07-02 00:11:00,67.0,66.0,-100.00,WSW,255,1.0,3.0,98,0.00,,,0.49,0.000000,,2013-07-02 04:11:00,
2013-07-02 00:32:00,67.0,66.0,-100.00,WSW,255,1.0,3.0,98,0.00,,,0.49,0.000000,,2013-07-02 04:32:00,
2013-07-02 00:42:00,67.0,66.0,-100.00,WSW,255,1.0,3.0,98,0.00,,,0.49,0.000000,,2013-07-02 04:42:00,
2013-07-02 00:54:00,67.0,66.0,-100.00,WSW,255,1.0,3.0,98,0.00,,,0.49,0.000000,,2013-07-02 04:54:00,
2013-07-02 01:02:00,67.0,66.0,-100.00,WSW,255,1.0,3.0,98,0.00,,,0.49,0.000000,,2013-07-02 05:02:00,
2013-07-02 01:11:00,67.0,66.0,-100.00,WSW,241,1.0,4.0,98,0.02,,,0.51,0.000000,,2013-07-02 05:11:00,
2013-07-02 01:43:00,67.0,66.0,-100.00,WSW,241,1.0,4.0,98,0.02,,,0.51,0.000000,,2013-07-02 05:43:00,
2013-07-02 01:53:00,67.0,66.0,-100.00,WSW,241,1.0,4.0,98,0.02,,,0.51,0.000000,,2013-07-02 05:53:00,
2013-07-02 02:02:00,67.0,66.0,-100.00,WSW,241,1.0,4.0,98,0.02,,,0.51,0.000000,,2013-07-02 06:02:00,
2013-07-02 02:11:00,67.0,67.0,-100.00,South,180,2.0,7.0,99,0.01,,,0.52,0.000000,,2013-07-02 06:11:00,
2013-07-02 02:43:00,67.0,67.0,-100.00,South,180,2.0,7.0,99,0.01,,,0.52,0.000000,,2013-07-02 06:43:00,
2013-07-02 02:53:00,67.0,67.0,-100.00,South,180,2.0,7.0,99,0.01,,,0.52,0.000000,,2013-07-02 06:53:00,
2013-07-02 03:01:00,67.0,67.0,-100.00,South,180,2.0,7.0,99,0.01,,,0.52,0.000000,,2013-07-02 07:01:00,
2013-07-02 03:11:00,67.0,67.0,-100.00,South,184,0.0,3.0,99,0.00,,,0.52,0.000000,,2013-07-02 07:11:00,
2013-07-02 03:44:00,67.0,67.0,-100.00,South,184,0.0,3.0,99,0.00,,,0.52,0.000000,,2013-07-02 07:44:00,
2013-07-02 03:53:00,67.0,67.0,-100.00,South,184,0.0,3.0,99,0.00,,,0.52,0.000000,,2013-07-02 07:53:00,
2013-07-02 04:02:00,67.0,67.0,-100.00,South,184,0.0,3.0,99,0.00,,,0.52,0.000000,,2013-07-02 08:02:00,
2013-07-02 04:11:00,67.0,67.0,-100.00,South,191,1.0,6.0,99,0.00,,,0.52,0.000000,,2013-07-02 08:11:00,
2013-07-02 04:44:00,67.0,67.0,-100.00,South,191,1.0,6.0,99,0.00,,,0.52,0.000000,,2013-07-02 08:44:00,
2013-07-02 04:53:00,67.0,67.0,-100.00,South,191,1.0,6.0,99,0.00,,,0.52,0.000000,,2013-07-02 08:53:00,
2013-07-02 05:02:00,67.0,67.0,-100.00,South,191,1.0,6.0,99,0.00,,,0.52,0.000000,,2013-07-02 09:02:00,
2013-07-02 05:11:00,66.0,66.0,-100.00,WSW,237,0.0,2.0,99,0.00,,,0.52,0.000000,,2013-07-02 09:11:00,
2013-07-02 05:43:00,66.0,66.0,-100.00,WSW,237,0.0,2.0,99,0.00,,,0.52,0.000000,,2013-07-02 09:43:00,
2013-07-02 05:52:00,66.0,66.0,-100.00,WSW,237,0.0,2.0,99,0.00,,,0.52,0.000000,,2013-07-02 09:52:00,
2013-07-02 06:01:00,66.0,66.0,-100.00,WSW,237,0.0,2.0,99,0.00,,,0.52,0.000000,,2013-07-02 10:01:00,
2013-07-02 06:11:00,66.0,66.0,-100.00,ESE,111,0.0,3.0,99,0.05,,,0.54,1.000000,,2013-07-02 10:11:00,
2013-07-02 06:44:00,66.0,66.0,-100.00,ESE,111,0.0,3.0,99,0.05,,,0.54,1.000000,,2013-07-02 10:44:00,
2013-07-02 06:52:00,66.0,66.0,-100.00,ESE,111,0.0,3.0,99,0.05,,,0.54,1.000000,,2013-07-02 10:52:00,
2013-07-02 07:01:00,66.0,66.0,-100.00,ESE,111,0.0,3.0,99,0.05,,,0.54,1.000000,,2013-07-02 11:01:00,
2013-07-02 07:11:00,67.0,67.0,-100.00,ESE,117,1.0,4.0,99,0.06,,,0.58,20.000000,,2013-07-02 11:11:00,
2013-07-02 07:42:00,67.0,67.0,-100.00,ESE,117,1.0,4.0,99,0.06,,,0.58,20.000000,,2013-07-02 11:42:00,
2013-07-02 07:52:00,67.0,67.0,-100.00,ESE,117,1.0,4.0,99,0.06,,,0.58,20.000000,,2013-07-02 11:52:00,
2013-07-02 08:01:00,67.0,67.0,-100.00,ESE,117,1.0,4.0,99,0.06,,,0.58,20.000000,,2013-07-02 12:01:00,
2013-07-02 08:11:00,68.0,67.0,-100.00,SSW,195,1.0,5.0,98,0.00,,,0.57,134.000000,,2013-07-02 12:11:00,
2013-07-02 08:43:00,68.0,67.0,-100.00,SSW,195,1.0,5.0,98,0.00,,,0.57,134.000000,,2013-07-02 12:43:00,
2013-07-02 08:52:00,68.0,67.0,-100.00,SSW,195,1.0,5.0,98,0.00,,,0.57,134.000000,,2013-07-02 12:52:00,
2013-07-02 09:01:00,68.0,67.0,-100.00,SSW,195,1.0,5.0,98,0.00,,,0.57,134.000000,,2013-07-02 13:01:00,
2013-07-02 09:11:00,71.0,69.0,-100.00,SW,220,1.0,6.0,93,0.00,,,0.56,224.000000,,2013-07-02 13:11:00,
2013-07-02 09:43:00,71.0,69.0,-100.00,SW,220,1.0,6.0,93,0.00,,,0.56,224.000000,,2013-07-02 13:43:00,
2013-07-02 09:52:00,71.0,69.0,-100.00,SW,220,1.0,6.0,93,0.00,,,0.56,224.000000,,2013-07-02 13:52:00,
2013-07-02 10:02:00,71.0,69.0,-100.00,SW,220,1.0,6.0,93,0.00,,,0.56,224.000000,,2013-07-02 14:02:00,
2013-07-02 10:11:00,73.0,69.0,-100.00,SSE,156,1.0,5.0,87,0.00,,,0.55,314.000000,,2013-07-02 14:11:00,
2013-07-02 10:43:00,73.0,69.0,-100.00,SSE,156,1.0,5.0,87,0.00,,,0.55,314.000000,,2013-07-02 14:43:00,
2013-07-02 10:53:00,73.0,69.0,-100.00,SSE,156,1.0,5.0,87,0.00,,,0.55,314.000000,,2013-07-02 14:53:00,
2013-07-02 11:02:00,73.0,69.0,-100.00,SSE,156,1.0,5.0,87,0.00,,,0.55,314.000000,,2013-07-02 15:02:00,
2013-07-02 11:11:00,75.0,69.0,-100.00,SSE,165,2.0,8.0,83,0.00,,,0.55,430.000000,,2013-07-02 15:11:00,
2013-07-02 11:44:00,75.0,69.0,-100.00,SSE,165,2.0,8.0,83,0.00,,,0.55,430.000000,,2013-07-02 15:44:00,
2013-07-02 11:53:00,75.0,69.0,-100.00,SSE,165,2.0,8.0,83,0.00,,,0.55,430.000000,,2013-07-02 15:53:00,
2013-07-02 12:01:00,75.0,69.0,-100.00,SSE,165,2.0,8.0,83,0.00,,,0.55,430.000000,,2013-07-02 16:01:00,
2013-07-02 12:11:00,78.0,69.0,-100.00,SSW,213,2.0,7.0,73,0.00,,,0.55,548.000000,,2013-07-02 16:11:00,
2013-07-02 12:43:00,78.0,69.0,-100.00,SSW,213,2.0,7.0,73,0.00,,,0.55,548.000000,,2013-07-02 16:43:00,
2013-07-02 12:52:00,78.0,69.0,-100.00,SSW,213,2.0,7.0,73,0.00,,,0.55,548.000000,,2013-07-02 16:52:00,
2013-07-02 13:02:00,78.0,69.0,-100.00,SSW,213,2.0,7.0,73,0.00,,,0.55,548.000000,,2013-07-02 17:02:00,
2013-07-02 13:11:00,78.0,69.0,-100.00,SSE,158,2.0,7.0,73,0.00,,,0.55,611.000000,,2013-07-02 17:11:00,
2013-07-02 13:43:00,78.0,69.0,-100.00,SSE,158,2.0,7.0,73,0.00,,,0.55,611.000000,,2013-07-02 17:43:00,
2013-07-02 13:53:00,78.0,69.0,-100.00,SSE,158,2.0,7.0,73,0.00,,,0.55,611.000000,,2013-07-02 17:53:00,
2013-07-02 14:02:00,78.0,69.0,-100.00,SSE,158,2.0,7.0,73,0.00,,,0.55,611.000000,,2013-07-02 18:02:00,
2013-07-02 14:11:00,76.0,69.0,-100.00,SE,141,2.0,12.0,79,0.01,,,0.56,467.000000,,2013-07-02 18:11:00,
2013-07-02 14:43:00,76.0,69.0,-100.00,SE,141,2.0,12.0,79,0.01,,,0.56,467.000000,,2013-07-02 18:43:00,
2013-07-02 14:53:00,76.0,69.0,-100.00,SE,141,2.0,12.0,79,0.01,,,0.56,467.000000,,2013-07-02 18:53:00,
2013-07-02 15:01:00,76.0,69.0,-100.00,SE,141,2.0,12.0,79,0.01,,,0.56,467.000000,,2013-07-02 19:01:00,
2013-07-02 15:11:00,78.0,68.0,-100.00,SSW,192,4.0,8.0,72,0.00,,,0.56,419.000000,,2013-07-02 19:11:00,
2013-07-02 15:43:00,78.0,68.0,-100.00,SSW,192,4.0,8.0,72,0.00,,,0.56,419.000000,,2013-07-02 19:43:00,
2013-07-02 15:53:00,78.0,68.0,-100.00,SSW,192,4.0,8.0,72,0.00,,,0.56,419.000000,,2013-07-02 19:53:00,
2013-07-02 16:02:00,78.0,68.0,-100.00,SSW,192,4.0,8.0,72,0.00,,,0.56,419.000000,,2013-07-02 20:02:00,
2013-07-02 16:11:00,76.0,68.0,-100.00,SSW,193,2.0,12.0,76,0.00,,,0.56,479.000000,,2013-07-02 20:11:00,
2013-07-02 16:43:00,76.0,68.0,-100.00,SSW,193,2.0,12.0,76,0.00,,,0.56,479.000000,,2013-07-02 20:43:00,
2013-07-02 16:52:00,76.0,68.0,-100.00,SSW,193,2.0,12.0,76,0.00,,,0.56,479.000000,,2013-07-02 20:52:00,
2013-07-02 17:03:00,76.0,68.0,-100.00,SSW,193,2.0,12.0,76,0.00,,,0.56,479.000000,,2013-07-02 21:03:00,
2013-07-02 17:11:00,78.0,68.0,-100.00,South,183,2.0,11.0,72,0.00,,,0.56,357.000000,,2013-07-02 21:11:00,
2013-07-02 17:44:00,78.0,68.0,-100.00,South,183,2.0,11.0,72,0.00,,,0.56,357.000000,,2013-07-02 21:44:00,
2013-07-02 17:52:00,78.0,68.0,-100.00,South,183,2.0,11.0,72,0.00,,,0.56,357.000000,,2013-07-02 21:52:00,
2013-07-02 18:01:00,78.0,68.0,-100.00,South,183,2.0,11.0,72,0.00,,,0.56,357.000000,,2013-07-02 22:01:00,
2013-07-02 18:11:00,76.0,67.0,-100.00,SE,142,0.0,9.0,74,0.00,,,0.55,226.000000,,2013-07-02 22:11:00,
2013-07-02 18:43:00,76.0,67.0,-100.00,SE,142,0.0,9.0,74,0.00,,,0.55,226.000000,,2013-07-02 22:43:00,
2013-07-02 18:53:00,76.0,67.0,-100.00,SE,142,0.0,9.0,74,0.00,,,0.55,226.000000,,2013-07-02 22:53:00,
2013-07-02 19:02:00,76.0,67.0,-100.00,SE,142,0.0,9.0,74,0.00,,,0.55,226.000000,,2013-07-02 23:02:00,
2013-07-02 19:11:00,74.0,66.0,-100.00,SW,234,2.0,15.0,77,0.00,,,0.45,82.000000,,2013-07-02 23:11:00,
2013-07-02 19:44:00,74.0,66.0,-100.00,SW,234,2.0,15.0,77,0.00,,,0.45,82.000000,,2013-07-02 23:44:00,
2013-07-02 19:52:00,74.0,66.0,-100.00,SW,234,2.0,15.0,77,0.00,,,0.45,82.000000,,2013-07-02 23:52:00,
2013-07-02 20:01:00,74.0,66.0,-100.00,SW,234,2.0,15.0,77,0.00,,,0.45,82.000000,,2013-07-03 00:01:00,
2013-07-02 20:11:00,73.0,67.0,-100.00,SW,231,2.0,9.0,82,0.00,,,0.31,35.000000,,2013-07-03 00:11:00,
2013-07-02 20:44:00,73.0,67.0,-100.00,SW,231,2.0,9.0,82,0.00,,,0.31,35.000000,,2013-07-03 00:44:00,
2013-07-02 20:52:00,73.0,67.0,-100.00,SW,231,2.0,9.0,82,0.00,,,0.31,35.000000,,2013-07-03 00:52:00,
2013-07-02 21:01:00,73.0,67.0,-100.00,SW,231,2.0,9.0,82,0.00,,,0.31,35.000000,,2013-07-03 01:01:00,
2013-07-02 21:11:00,73.0,66.0,-100.00,SW,218,4.0,12.0,78,0.00,,,0.23,2.000000,,2013-07-03 01:11:00,
2013-07-02 21:43:00,73.0,66.0,-100.00,SW,218,4.0,12.0,78,0.00,,,0.23,2.000000,,2013-07-03 01:43:00,
2013-07-02 22:00:00,73.0,66.0,-100.00,SW,218,4.0,12.0,78,0.00,,,0.23,2.000000,,2013-07-03 02:00:00,
2013-07-02 22:06:00,73.0,66.0,-100.00,SW,218,4.0,12.0,78,0.00,,,0.23,2.000000,,2013-07-03 02:06:00,
2013-07-02 22:11:00,73.0,66.0,-100.00,SW,218,3.0,18.0,79,0.00,,,0.19,0.000000,,2013-07-03 02:11:00,
2013-07-02 22:46:00,73.0,66.0,-100.00,SW,218,3.0,18.0,79,0.00,,,0.19,0.000000,,2013-07-03 02:46:00,
2013-07-02 23:07:00,73.0,66.0,-100.00,SW,218,3.0,18.0,79,0.00,,,0.19,0.000000,,2013-07-03 03:07:00,
2013-07-02 23:11:00,73.0,66.0,-100.00,WSW,238,2.0,11.0,78,0.00,,,0.15,0.000000,,2013-07-03 03:11:00,
2013-07-02 23:49:00,73.0,66.0,-100.00,WSW,238,2.0,11.0,78,0.00,,,0.15,0.000000,,2013-07-03 03:49:00,
2013-07-02 23:59:00,73.0,66.0,-100.00,WSW,238,2.0,11.0,78,0.00,,,0.15,0.000000,,2013-07-03 03:59:00,